sensor_id;sensor_type;location;lat;lon;timestamp;P1;durP1;ratioP1;P2;durP2;ratioP2
19560;SDS011;9927;47.792;10.616;2024-03-22T04:01:40;23.53;;;15.07;;
19560;SDS011;9927;47.792;10.616;2024-03-22T04:04:07;22.90;;;15.93;;
19560;SDS011;9927;47.792;10.616;2024-03-22T04:06:33;18.17;;;14.97;;
19560;SDS011;9927;47.792;10.616;2024-03-22T04:08:59;18.57;;;15.63;;
19560;SDS011;9927;47.792;10.616;2024-03-22T04:11:26;22.17;;;16.70;;
19560;SDS011;9927;47.792;10.616;2024-03-22T04:13:52;22.20;;;16.33;;
19560;SDS011;9927;47.792;10.616;2024-03-22T04:16:18;17.97;;;14.90;;
19560;SDS011;9927;47.792;10.616;2024-03-22T04:18:45;19.23;;;15.10;;
19560;SDS011;9927;47.792;10.616;2024-03-22T04:21:11;15.87;;;12.60;;
19560;SDS011;9927;47.792;10.616;2024-03-22T04:23:38;19.53;;;14.53;;
19560;SDS011;9927;47.792;10.616;2024-03-22T04:26:04;14.93;;;13.20;;
19560;SDS011;9927;47.792;10.616;2024-03-22T04:28:30;16.13;;;13.63;;
19560;SDS011;9927;47.792;10.616;2024-03-22T04:30:57;15.43;;;13.23;;
19560;SDS011;9927;47.792;10.616;2024-03-22T04:33:32;12.80;;;11.47;;
19560;SDS011;9927;47.792;10.616;2024-03-22T04:35:59;14.83;;;13.20;;
19560;SDS011;9927;47.792;10.616;2024-03-22T04:38:26;15.47;;;12.80;;
19560;SDS011;9927;47.792;10.616;2024-03-22T04:40:54;15.20;;;13.47;;
19560;SDS011;9927;47.792;10.616;2024-03-22T04:43:20;16.03;;;13.30;;
19560;SDS011;9927;47.792;10.616;2024-03-22T04:45:47;14.23;;;12.03;;
19560;SDS011;9927;47.792;10.616;2024-03-22T04:48:14;15.17;;;12.63;;
19560;SDS011;9927;47.792;10.616;2024-03-22T04:50:42;14.87;;;11.87;;
19560;SDS011;9927;47.792;10.616;2024-03-22T04:53:08;15.13;;;11.97;;
19560;SDS011;9927;47.792;10.616;2024-03-22T04:55:34;16.80;;;13.07;;
19560;SDS011;9927;47.792;10.616;2024-03-22T04:58:01;16.03;;;13.77;;
19560;SDS011;9927;47.792;10.616;2024-03-22T05:00:28;14.23;;;12.70;;
19560;SDS011;9927;47.792;10.616;2024-03-22T05:02:54;18.90;;;13.07;;
19560;SDS011;9927;47.792;10.616;2024-03-22T05:05:20;14.50;;;12.23;;
19560;SDS011;9927;47.792;10.616;2024-03-22T05:07:47;18.30;;;13.77;;
19560;SDS011;9927;47.792;10.616;2024-03-22T05:10:13;16.83;;;13.17;;
19560;SDS011;9927;47.792;10.616;2024-03-22T05:12:40;14.03;;;11.83;;
19560;SDS011;9927;47.792;10.616;2024-03-22T05:15:07;15.73;;;11.87;;
19560;SDS011;9927;47.792;10.616;2024-03-22T05:17:33;14.37;;;11.93;;
19560;SDS011;9927;47.792;10.616;2024-03-22T05:20:00;12.20;;;10.90;;
19560;SDS011;9927;47.792;10.616;2024-03-22T05:22:27;16.97;;;11.97;;
19560;SDS011;9927;47.792;10.616;2024-03-22T05:24:53;15.50;;;13.27;;
19560;SDS011;9927;47.792;10.616;2024-03-22T05:27:20;13.00;;;10.80;;
19560;SDS011;9927;47.792;10.616;2024-03-22T05:29:46;16.73;;;13.07;;
19560;SDS011;9927;47.792;10.616;2024-03-22T05:32:12;18.17;;;15.13;;
19560;SDS011;9927;47.792;10.616;2024-03-22T05:34:39;16.97;;;13.97;;
19560;SDS011;9927;47.792;10.616;2024-03-22T05:37:05;17.70;;;14.07;;
19560;SDS011;9927;47.792;10.616;2024-03-22T05:39:32;16.77;;;13.47;;
19560;SDS011;9927;47.792;10.616;2024-03-22T05:41:58;14.10;;;12.60;;
19560;SDS011;9927;47.792;10.616;2024-03-22T05:44:24;22.63;;;12.87;;
19560;SDS011;9927;47.792;10.616;2024-03-22T05:46:50;14.50;;;12.10;;
19560;SDS011;9927;47.792;10.616;2024-03-22T05:49:17;15.83;;;11.83;;
19560;SDS011;9927;47.792;10.616;2024-03-22T05:51:43;14.50;;;13.00;;
19560;SDS011;9927;47.792;10.616;2024-03-22T05:54:09;15.63;;;13.23;;
19560;SDS011;9927;47.792;10.616;2024-03-22T05:56:36;16.10;;;12.70;;
19560;SDS011;9927;47.792;10.616;2024-03-22T05:59:02;13.10;;;11.80;;
19560;SDS011;9927;47.792;10.616;2024-03-22T06:01:29;14.47;;;12.47;;
19560;SDS011;9927;47.792;10.616;2024-03-22T06:03:55;13.57;;;11.70;;
19560;SDS011;9927;47.792;10.616;2024-03-22T06:06:21;12.47;;;10.70;;
19560;SDS011;9927;47.792;10.616;2024-03-22T06:08:51;15.97;;;12.47;;
19560;SDS011;9927;47.792;10.616;2024-03-22T06:11:20;17.33;;;14.53;;
19560;SDS011;9927;47.792;10.616;2024-03-22T06:13:49;14.33;;;12.20;;
19560;SDS011;9927;47.792;10.616;2024-03-22T06:16:16;12.77;;;11.40;;
19560;SDS011;9927;47.792;10.616;2024-03-22T06:18:43;15.07;;;12.23;;
19560;SDS011;9927;47.792;10.616;2024-03-22T06:21:10;11.70;;;10.60;;
19560;SDS011;9927;47.792;10.616;2024-03-22T06:23:36;11.87;;;10.67;;
19560;SDS011;9927;47.792;10.616;2024-03-22T06:26:03;11.67;;;10.67;;
19560;SDS011;9927;47.792;10.616;2024-03-22T06:28:29;22.37;;;12.03;;
19560;SDS011;9927;47.792;10.616;2024-03-22T06:30:55;15.67;;;11.67;;
19560;SDS011;9927;47.792;10.616;2024-03-22T06:33:22;12.98;;;11.75;;
19560;SDS011;9927;47.792;10.616;2024-03-22T06:35:48;13.13;;;11.75;;
19560;SDS011;9927;47.792;10.616;2024-03-22T06:38:14;12.55;;;11.27;;
19560;SDS011;9927;47.792;10.616;2024-03-22T06:40:40;10.18;;;9.23;;
19560;SDS011;9927;47.792;10.616;2024-03-22T06:43:07;12.07;;;9.45;;
19560;SDS011;9927;47.792;10.616;2024-03-22T06:45:34;9.82;;;8.93;;
19560;SDS011;9927;47.792;10.616;2024-03-22T06:48:01;9.02;;;8.32;;
19560;SDS011;9927;47.792;10.616;2024-03-22T06:50:27;9.65;;;8.65;;
19560;SDS011;9927;47.792;10.616;2024-03-22T06:52:53;9.60;;;8.52;;
19560;SDS011;9927;47.792;10.616;2024-03-22T06:55:20;9.95;;;8.98;;
19560;SDS011;9927;47.792;10.616;2024-03-22T06:57:47;9.75;;;8.55;;
19560;SDS011;9927;47.792;10.616;2024-03-22T07:00:15;7.90;;;7.22;;
19560;SDS011;9927;47.792;10.616;2024-03-22T07:02:43;10.57;;;7.57;;
19560;SDS011;9927;47.792;10.616;2024-03-22T07:05:10;7.97;;;7.18;;
19560;SDS011;9927;47.792;10.616;2024-03-22T07:07:37;8.80;;;7.90;;
19560;SDS011;9927;47.792;10.616;2024-03-22T07:10:03;8.02;;;7.43;;
19560;SDS011;9927;47.792;10.616;2024-03-22T07:12:33;8.55;;;7.45;;
19560;SDS011;9927;47.792;10.616;2024-03-22T07:15:00;7.82;;;7.13;;
19560;SDS011;9927;47.792;10.616;2024-03-22T07:17:27;7.95;;;7.35;;
19560;SDS011;9927;47.792;10.616;2024-03-22T07:19:54;8.65;;;7.80;;
19560;SDS011;9927;47.792;10.616;2024-03-22T07:22:21;6.60;;;6.00;;
19560;SDS011;9927;47.792;10.616;2024-03-22T07:24:48;7.85;;;6.68;;
19560;SDS011;9927;47.792;10.616;2024-03-22T07:27:15;10.68;;;6.63;;
19560;SDS011;9927;47.792;10.616;2024-03-22T07:29:42;10.43;;;6.65;;
19560;SDS011;9927;47.792;10.616;2024-03-22T07:32:10;6.90;;;6.30;;
19560;SDS011;9927;47.792;10.616;2024-03-22T07:34:36;6.53;;;5.88;;
19560;SDS011;9927;47.792;10.616;2024-03-22T07:37:02;7.43;;;5.00;;
19560;SDS011;9927;47.792;10.616;2024-03-22T07:39:29;5.38;;;4.88;;
19560;SDS011;9927;47.792;10.616;2024-03-22T07:41:56;4.55;;;4.20;;
19560;SDS011;9927;47.792;10.616;2024-03-22T07:44:22;5.05;;;4.32;;
19560;SDS011;9927;47.792;10.616;2024-03-22T07:46:54;4.50;;;4.20;;
19560;SDS011;9927;47.792;10.616;2024-03-22T07:49:20;4.47;;;4.18;;
19560;SDS011;9927;47.792;10.616;2024-03-22T07:51:47;4.05;;;3.78;;
19560;SDS011;9927;47.792;10.616;2024-03-22T07:54:13;4.03;;;3.70;;
19560;SDS011;9927;47.792;10.616;2024-03-22T07:56:39;3.95;;;3.67;;
19560;SDS011;9927;47.792;10.616;2024-03-22T07:59:06;4.00;;;3.65;;
19560;SDS011;9927;47.792;10.616;2024-03-22T08:01:32;4.32;;;4.05;;
19560;SDS011;9927;47.792;10.616;2024-03-22T08:03:58;4.07;;;3.67;;
19560;SDS011;9927;47.792;10.616;2024-03-22T08:06:25;4.13;;;3.80;;
19560;SDS011;9927;47.792;10.616;2024-03-22T08:08:51;4.00;;;3.70;;
19560;SDS011;9927;47.792;10.616;2024-03-22T08:11:17;3.75;;;3.45;;
19560;SDS011;9927;47.792;10.616;2024-03-22T08:13:44;3.67;;;3.38;;
19560;SDS011;9927;47.792;10.616;2024-03-22T08:16:10;3.55;;;3.25;;
19560;SDS011;9927;47.792;10.616;2024-03-22T08:18:36;6.40;;;3.50;;
19560;SDS011;9927;47.792;10.616;2024-03-22T08:21:03;3.22;;;3.03;;
19560;SDS011;9927;47.792;10.616;2024-03-22T08:23:29;3.70;;;3.40;;
19560;SDS011;9927;47.792;10.616;2024-03-22T08:25:56;3.38;;;3.20;;
19560;SDS011;9927;47.792;10.616;2024-03-22T08:28:23;3.78;;;3.03;;
19560;SDS011;9927;47.792;10.616;2024-03-22T08:30:49;3.33;;;3.13;;
19560;SDS011;9927;47.792;10.616;2024-03-22T08:33:16;2.97;;;2.85;;
19560;SDS011;9927;47.792;10.616;2024-03-22T08:35:42;3.33;;;3.13;;
19560;SDS011;9927;47.792;10.616;2024-03-22T08:38:08;3.20;;;2.85;;
19560;SDS011;9927;47.792;10.616;2024-03-22T08:40:39;2.95;;;2.80;;
19560;SDS011;9927;47.792;10.616;2024-03-22T08:43:06;3.17;;;2.97;;
19560;SDS011;9927;47.792;10.616;2024-03-22T08:45:35;5.57;;;3.30;;
19560;SDS011;9927;47.792;10.616;2024-03-22T08:48:02;3.10;;;2.90;;
19560;SDS011;9927;47.792;10.616;2024-03-22T08:50:28;2.97;;;2.38;;
19560;SDS011;9927;47.792;10.616;2024-03-22T08:52:54;3.22;;;2.95;;
19560;SDS011;9927;47.792;10.616;2024-03-22T08:55:20;3.13;;;2.85;;
19560;SDS011;9927;47.792;10.616;2024-03-22T08:57:47;3.08;;;2.70;;
19560;SDS011;9927;47.792;10.616;2024-03-22T09:00:13;4.07;;;2.75;;
19560;SDS011;9927;47.792;10.616;2024-03-22T09:02:40;5.93;;;3.05;;
19560;SDS011;9927;47.792;10.616;2024-03-22T09:05:06;3.30;;;3.00;;
19560;SDS011;9927;47.792;10.616;2024-03-22T09:07:34;3.50;;;3.20;;
19560;SDS011;9927;47.792;10.616;2024-03-22T09:10:00;4.78;;;3.05;;
19560;SDS011;9927;47.792;10.616;2024-03-22T09:12:26;3.45;;;3.25;;
19560;SDS011;9927;47.792;10.616;2024-03-22T09:14:53;5.63;;;3.53;;
19560;SDS011;9927;47.792;10.616;2024-03-22T09:17:19;3.50;;;3.20;;
19560;SDS011;9927;47.792;10.616;2024-03-22T09:19:46;3.30;;;3.10;;
19560;SDS011;9927;47.792;10.616;2024-03-22T09:22:12;3.95;;;3.30;;
19560;SDS011;9927;47.792;10.616;2024-03-22T09:24:38;4.15;;;3.25;;
19560;SDS011;9927;47.792;10.616;2024-03-22T09:27:04;3.78;;;3.42;;
19560;SDS011;9927;47.792;10.616;2024-03-22T09:29:35;3.63;;;3.33;;
19560;SDS011;9927;47.792;10.616;2024-03-22T09:32:02;3.92;;;3.63;;
19560;SDS011;9927;47.792;10.616;2024-03-22T09:34:28;3.45;;;3.25;;
19560;SDS011;9927;47.792;10.616;2024-03-22T09:36:55;3.85;;;3.55;;
19560;SDS011;9927;47.792;10.616;2024-03-22T09:39:22;3.60;;;3.40;;
19560;SDS011;9927;47.792;10.616;2024-03-22T09:41:50;3.33;;;3.13;;
19560;SDS011;9927;47.792;10.616;2024-03-22T09:44:20;3.60;;;3.40;;
19560;SDS011;9927;47.792;10.616;2024-03-22T09:46:47;3.65;;;3.38;;
19560;SDS011;9927;47.792;10.616;2024-03-22T09:49:16;3.92;;;3.63;;
19560;SDS011;9927;47.792;10.616;2024-03-22T09:51:43;3.90;;;3.60;;
19560;SDS011;9927;47.792;10.616;2024-03-22T09:54:10;3.80;;;3.50;;
19560;SDS011;9927;47.792;10.616;2024-03-22T09:56:39;3.70;;;3.40;;
19560;SDS011;9927;47.792;10.616;2024-03-22T09:59:06;3.60;;;3.30;;
19560;SDS011;9927;47.792;10.616;2024-03-22T10:01:35;3.80;;;3.60;;
19560;SDS011;9927;47.792;10.616;2024-03-22T10:04:03;4.20;;;3.58;;
19560;SDS011;9927;47.792;10.616;2024-03-22T10:06:30;4.00;;;3.70;;
19560;SDS011;9927;47.792;10.616;2024-03-22T10:08:58;3.92;;;3.63;;
19560;SDS011;9927;47.792;10.616;2024-03-22T10:11:28;5.32;;;3.80;;
19560;SDS011;9927;47.792;10.616;2024-03-22T10:13:55;3.72;;;3.50;;
19560;SDS011;9927;47.792;10.616;2024-03-22T10:16:21;3.92;;;3.60;;
19560;SDS011;9927;47.792;10.616;2024-03-22T10:18:48;3.80;;;3.60;;
19560;SDS011;9927;47.792;10.616;2024-03-22T10:21:18;3.88;;;3.55;;
19560;SDS011;9927;47.792;10.616;2024-03-22T10:23:46;4.10;;;3.90;;
19560;SDS011;9927;47.792;10.616;2024-03-22T10:26:14;5.43;;;4.50;;
19560;SDS011;9927;47.792;10.616;2024-03-22T10:28:44;3.92;;;3.65;;
19560;SDS011;9927;47.792;10.616;2024-03-22T10:31:14;4.18;;;3.85;;
19560;SDS011;9927;47.792;10.616;2024-03-22T10:33:44;3.92;;;3.63;;
19560;SDS011;9927;47.792;10.616;2024-03-22T10:36:11;3.28;;;3.15;;
19560;SDS011;9927;47.792;10.616;2024-03-22T10:38:39;3.50;;;3.30;;
19560;SDS011;9927;47.792;10.616;2024-03-22T10:41:06;3.95;;;3.70;;
19560;SDS011;9927;47.792;10.616;2024-03-22T10:43:32;4.43;;;3.80;;
19560;SDS011;9927;47.792;10.616;2024-03-22T10:46:00;3.75;;;3.55;;
19560;SDS011;9927;47.792;10.616;2024-03-22T10:48:30;3.70;;;3.40;;
19560;SDS011;9927;47.792;10.616;2024-03-22T10:50:59;4.15;;;3.75;;
19560;SDS011;9927;47.792;10.616;2024-03-22T10:53:27;3.97;;;3.78;;
19560;SDS011;9927;47.792;10.616;2024-03-22T10:55:57;6.18;;;3.72;;
19560;SDS011;9927;47.792;10.616;2024-03-22T10:58:26;3.50;;;3.30;;
19560;SDS011;9927;47.792;10.616;2024-03-22T11:00:53;3.22;;;3.08;;
19560;SDS011;9927;47.792;10.616;2024-03-22T11:03:21;3.00;;;2.80;;
19560;SDS011;9927;47.792;10.616;2024-03-22T11:05:49;4.65;;;3.08;;
19560;SDS011;9927;47.792;10.616;2024-03-22T11:08:23;3.42;;;3.22;;
19560;SDS011;9927;47.792;10.616;2024-03-22T11:10:55;3.08;;;2.85;;
19560;SDS011;9927;47.792;10.616;2024-03-22T11:13:23;2.70;;;2.70;;
19560;SDS011;9927;47.792;10.616;2024-03-22T11:15:49;3.22;;;3.00;;
19560;SDS011;9927;47.792;10.616;2024-03-22T11:18:20;3.10;;;2.85;;
19560;SDS011;9927;47.792;10.616;2024-03-22T11:20:46;3.13;;;2.90;;
19560;SDS011;9927;47.792;10.616;2024-03-22T11:23:13;3.38;;;3.17;;
19560;SDS011;9927;47.792;10.616;2024-03-22T11:25:39;3.00;;;2.80;;
19560;SDS011;9927;47.792;10.616;2024-03-22T11:28:06;3.20;;;3.10;;
19560;SDS011;9927;47.792;10.616;2024-03-22T11:30:33;2.85;;;2.72;;
19560;SDS011;9927;47.792;10.616;2024-03-22T11:33:02;2.90;;;2.70;;
19560;SDS011;9927;47.792;10.616;2024-03-22T11:35:29;3.10;;;2.90;;
19560;SDS011;9927;47.792;10.616;2024-03-22T11:37:56;3.25;;;3.05;;
19560;SDS011;9927;47.792;10.616;2024-03-22T11:40:25;4.20;;;3.78;;
19560;SDS011;9927;47.792;10.616;2024-03-22T11:42:52;3.10;;;3.00;;
19560;SDS011;9927;47.792;10.616;2024-03-22T11:45:20;3.22;;;3.03;;
19560;SDS011;9927;47.792;10.616;2024-03-22T11:47:48;3.25;;;3.10;;
19560;SDS011;9927;47.792;10.616;2024-03-22T11:50:15;3.45;;;3.25;;
19560;SDS011;9927;47.792;10.616;2024-03-22T11:52:41;3.42;;;3.10;;
19560;SDS011;9927;47.792;10.616;2024-03-22T11:55:12;3.00;;;2.90;;
19560;SDS011;9927;47.792;10.616;2024-03-22T11:57:39;3.00;;;2.83;;
19560;SDS011;9927;47.792;10.616;2024-03-22T12:00:06;3.22;;;2.92;;
19560;SDS011;9927;47.792;10.616;2024-03-22T12:02:38;3.35;;;3.13;;
19560;SDS011;9927;47.792;10.616;2024-03-22T12:05:04;3.53;;;3.28;;
19560;SDS011;9927;47.792;10.616;2024-03-22T12:07:31;3.67;;;3.35;;
19560;SDS011;9927;47.792;10.616;2024-03-22T12:09:58;3.38;;;3.17;;
19560;SDS011;9927;47.792;10.616;2024-03-22T12:12:25;2.92;;;2.83;;
19560;SDS011;9927;47.792;10.616;2024-03-22T12:14:52;3.00;;;2.88;;
19560;SDS011;9927;47.792;10.616;2024-03-22T12:17:19;3.30;;;3.00;;
19560;SDS011;9927;47.792;10.616;2024-03-22T12:19:45;3.30;;;3.13;;
19560;SDS011;9927;47.792;10.616;2024-03-22T12:22:11;2.83;;;2.67;;
19560;SDS011;9927;47.792;10.616;2024-03-22T12:24:38;3.38;;;3.10;;
19560;SDS011;9927;47.792;10.616;2024-03-22T12:27:04;2.80;;;2.60;;
19560;SDS011;9927;47.792;10.616;2024-03-22T12:29:34;3.00;;;2.90;;
19560;SDS011;9927;47.792;10.616;2024-03-22T12:32:01;2.97;;;2.78;;
19560;SDS011;9927;47.792;10.616;2024-03-22T12:34:29;2.50;;;2.30;;
19560;SDS011;9927;47.792;10.616;2024-03-22T12:36:58;2.50;;;2.40;;
19560;SDS011;9927;47.792;10.616;2024-03-22T12:39:25;2.80;;;2.70;;
19560;SDS011;9927;47.792;10.616;2024-03-22T12:41:51;2.90;;;2.80;;
19560;SDS011;9927;47.792;10.616;2024-03-22T12:44:19;2.78;;;2.67;;
19560;SDS011;9927;47.792;10.616;2024-03-22T12:46:46;2.72;;;2.63;;
19560;SDS011;9927;47.792;10.616;2024-03-22T12:49:13;3.13;;;2.70;;
19560;SDS011;9927;47.792;10.616;2024-03-22T12:51:39;3.20;;;2.90;;
19560;SDS011;9927;47.792;10.616;2024-03-22T12:54:06;3.00;;;2.80;;
19560;SDS011;9927;47.792;10.616;2024-03-22T12:56:33;3.28;;;3.00;;
19560;SDS011;9927;47.792;10.616;2024-03-22T12:58:59;2.88;;;2.78;;
19560;SDS011;9927;47.792;10.616;2024-03-22T13:01:26;2.92;;;2.83;;
19560;SDS011;9927;47.792;10.616;2024-03-22T13:03:52;3.92;;;3.00;;
19560;SDS011;9927;47.792;10.616;2024-03-22T13:06:19;3.22;;;3.03;;
19560;SDS011;9927;47.792;10.616;2024-03-22T13:08:45;2.85;;;2.70;;
19560;SDS011;9927;47.792;10.616;2024-03-22T13:11:12;4.18;;;3.10;;
19560;SDS011;9927;47.792;10.616;2024-03-22T13:13:39;3.15;;;2.95;;
19560;SDS011;9927;47.792;10.616;2024-03-22T13:16:06;2.80;;;2.70;;
19560;SDS011;9927;47.792;10.616;2024-03-22T13:18:32;3.20;;;3.00;;
19560;SDS011;9927;47.792;10.616;2024-03-22T13:20:58;2.90;;;2.80;;
19560;SDS011;9927;47.792;10.616;2024-03-22T13:23:25;2.70;;;2.67;;
19560;SDS011;9927;47.792;10.616;2024-03-22T13:25:51;3.40;;;3.10;;
19560;SDS011;9927;47.792;10.616;2024-03-22T13:28:18;2.95;;;2.78;;
19560;SDS011;9927;47.792;10.616;2024-03-22T13:30:46;3.33;;;3.10;;
19560;SDS011;9927;47.792;10.616;2024-03-22T13:33:13;3.25;;;3.05;;
19560;SDS011;9927;47.792;10.616;2024-03-22T13:35:39;2.80;;;2.60;;
19560;SDS011;9927;47.792;10.616;2024-03-22T13:38:07;3.13;;;2.95;;
19560;SDS011;9927;47.792;10.616;2024-03-22T13:40:39;2.92;;;2.83;;
19560;SDS011;9927;47.792;10.616;2024-03-22T13:43:06;3.17;;;2.97;;
19560;SDS011;9927;47.792;10.616;2024-03-22T13:45:32;2.70;;;2.50;;
19560;SDS011;9927;47.792;10.616;2024-03-22T13:48:10;2.78;;;2.67;;
19560;SDS011;9927;47.792;10.616;2024-03-22T13:50:38;3.40;;;3.20;;
19560;SDS011;9927;47.792;10.616;2024-03-22T13:53:04;2.55;;;2.45;;
19560;SDS011;9927;47.792;10.616;2024-03-22T13:55:31;2.88;;;2.67;;
19560;SDS011;9927;47.792;10.616;2024-03-22T13:57:58;2.88;;;2.70;;
19560;SDS011;9927;47.792;10.616;2024-03-22T14:00:24;3.78;;;2.70;;
19560;SDS011;9927;47.792;10.616;2024-03-22T14:02:52;2.80;;;2.70;;
19560;SDS011;9927;47.792;10.616;2024-03-22T14:05:20;2.88;;;2.67;;
19560;SDS011;9927;47.792;10.616;2024-03-22T14:07:46;3.08;;;2.88;;
19560;SDS011;9927;47.792;10.616;2024-03-22T14:10:13;5.90;;;2.90;;
19560;SDS011;9927;47.792;10.616;2024-03-22T14:12:42;2.90;;;2.70;;
19560;SDS011;9927;47.792;10.616;2024-03-22T14:15:09;3.10;;;2.90;;
19560;SDS011;9927;47.792;10.616;2024-03-22T14:17:35;2.80;;;2.58;;
19560;SDS011;9927;47.792;10.616;2024-03-22T14:20:01;3.08;;;2.88;;
19560;SDS011;9927;47.792;10.616;2024-03-22T14:22:34;2.88;;;2.67;;
19560;SDS011;9927;47.792;10.616;2024-03-22T14:25:00;3.20;;;2.50;;
19560;SDS011;9927;47.792;10.616;2024-03-22T14:27:28;3.60;;;2.72;;
19560;SDS011;9927;47.792;10.616;2024-03-22T14:29:54;2.88;;;2.67;;
19560;SDS011;9927;47.792;10.616;2024-03-22T14:32:21;2.65;;;2.60;;
19560;SDS011;9927;47.792;10.616;2024-03-22T14:34:47;2.50;;;2.40;;
19560;SDS011;9927;47.792;10.616;2024-03-22T14:37:13;2.60;;;2.50;;
19560;SDS011;9927;47.792;10.616;2024-03-22T14:39:40;2.53;;;2.40;;
19560;SDS011;9927;47.792;10.616;2024-03-22T14:42:07;2.65;;;2.50;;
19560;SDS011;9927;47.792;10.616;2024-03-22T14:44:33;2.90;;;2.70;;
19560;SDS011;9927;47.792;10.616;2024-03-22T14:47:02;2.83;;;2.63;;
19560;SDS011;9927;47.792;10.616;2024-03-22T14:49:29;2.40;;;2.35;;
19560;SDS011;9927;47.792;10.616;2024-03-22T14:51:55;2.47;;;2.38;;
19560;SDS011;9927;47.792;10.616;2024-03-22T14:54:21;3.00;;;2.80;;
19560;SDS011;9927;47.792;10.616;2024-03-22T14:56:48;2.85;;;2.75;;
19560;SDS011;9927;47.792;10.616;2024-03-22T14:59:14;2.92;;;2.83;;
19560;SDS011;9927;47.792;10.616;2024-03-22T15:01:40;6.57;;;3.00;;
19560;SDS011;9927;47.792;10.616;2024-03-22T15:04:07;2.90;;;2.80;;
19560;SDS011;9927;47.792;10.616;2024-03-22T15:06:33;2.95;;;2.80;;
19560;SDS011;9927;47.792;10.616;2024-03-22T15:08:59;2.83;;;2.72;;
19560;SDS011;9927;47.792;10.616;2024-03-22T15:11:30;3.40;;;3.10;;
19560;SDS011;9927;47.792;10.616;2024-03-22T15:13:57;4.10;;;2.80;;
19560;SDS011;9927;47.792;10.616;2024-03-22T15:16:23;2.63;;;2.20;;
19560;SDS011;9927;47.792;10.616;2024-03-22T15:18:49;3.22;;;2.83;;
19560;SDS011;9927;47.792;10.616;2024-03-22T15:21:15;2.90;;;2.80;;
19560;SDS011;9927;47.792;10.616;2024-03-22T15:23:42;2.90;;;2.70;;
19560;SDS011;9927;47.792;10.616;2024-03-22T15:26:09;3.88;;;3.08;;
19560;SDS011;9927;47.792;10.616;2024-03-22T15:28:36;2.83;;;2.63;;
19560;SDS011;9927;47.792;10.616;2024-03-22T15:31:02;2.80;;;2.67;;
19560;SDS011;9927;47.792;10.616;2024-03-22T15:33:29;6.55;;;2.72;;
19560;SDS011;9927;47.792;10.616;2024-03-22T15:35:55;2.80;;;2.70;;
19560;SDS011;9927;47.792;10.616;2024-03-22T15:38:21;3.42;;;2.75;;
19560;SDS011;9927;47.792;10.616;2024-03-22T15:40:48;2.50;;;2.40;;
19560;SDS011;9927;47.792;10.616;2024-03-22T15:43:15;2.92;;;2.40;;
19560;SDS011;9927;47.792;10.616;2024-03-22T15:45:41;2.75;;;2.50;;
19560;SDS011;9927;47.792;10.616;2024-03-22T15:48:08;2.65;;;2.55;;
19560;SDS011;9927;47.792;10.616;2024-03-22T15:50:35;3.65;;;2.53;;
19560;SDS011;9927;47.792;10.616;2024-03-22T15:53:01;2.75;;;2.58;;
19560;SDS011;9927;47.792;10.616;2024-03-22T15:55:28;3.20;;;3.00;;
19560;SDS011;9927;47.792;10.616;2024-03-22T15:57:57;3.17;;;2.97;;
19560;SDS011;9927;47.792;10.616;2024-03-22T16:00:24;4.45;;;3.03;;
19560;SDS011;9927;47.792;10.616;2024-03-22T16:02:52;3.10;;;2.80;;
19560;SDS011;9927;47.792;10.616;2024-03-22T16:05:18;3.72;;;3.25;;
19560;SDS011;9927;47.792;10.616;2024-03-22T16:07:45;3.20;;;3.00;;
19560;SDS011;9927;47.792;10.616;2024-03-22T16:10:14;4.57;;;3.00;;
19560;SDS011;9927;47.792;10.616;2024-03-22T16:12:41;3.53;;;3.30;;
19560;SDS011;9927;47.792;10.616;2024-03-22T16:15:07;3.90;;;3.60;;
19560;SDS011;9927;47.792;10.616;2024-03-22T16:17:34;3.00;;;2.90;;
19560;SDS011;9927;47.792;10.616;2024-03-22T16:20:00;3.42;;;3.22;;
19560;SDS011;9927;47.792;10.616;2024-03-22T16:22:26;3.53;;;3.22;;
19560;SDS011;9927;47.792;10.616;2024-03-22T16:24:53;3.20;;;3.00;;
19560;SDS011;9927;47.792;10.616;2024-03-22T16:27:20;3.20;;;2.90;;
19560;SDS011;9927;47.792;10.616;2024-03-22T16:29:47;4.70;;;2.90;;
19560;SDS011;9927;47.792;10.616;2024-03-22T16:32:14;7.57;;;2.95;;
19560;SDS011;9927;47.792;10.616;2024-03-22T16:34:40;3.13;;;2.88;;
19560;SDS011;9927;47.792;10.616;2024-03-22T16:37:07;2.92;;;2.83;;
19560;SDS011;9927;47.792;10.616;2024-03-22T16:39:33;2.95;;;2.83;;
19560;SDS011;9927;47.792;10.616;2024-03-22T16:42:00;3.17;;;2.97;;
19560;SDS011;9927;47.792;10.616;2024-03-22T16:44:26;2.90;;;2.80;;
19560;SDS011;9927;47.792;10.616;2024-03-22T16:46:52;7.53;;;2.90;;
19560;SDS011;9927;47.792;10.616;2024-03-22T16:49:19;3.13;;;2.92;;
19560;SDS011;9927;47.792;10.616;2024-03-22T16:51:45;2.65;;;2.55;;
19560;SDS011;9927;47.792;10.616;2024-03-22T16:54:13;6.00;;;2.90;;
19560;SDS011;9927;47.792;10.616;2024-03-22T16:56:39;3.40;;;3.10;;
19560;SDS011;9927;47.792;10.616;2024-03-22T16:59:05;2.97;;;2.72;;
19560;SDS011;9927;47.792;10.616;2024-03-22T17:01:31;2.85;;;2.75;;
19560;SDS011;9927;47.792;10.616;2024-03-22T17:03:58;2.80;;;2.70;;
19560;SDS011;9927;47.792;10.616;2024-03-22T17:06:24;3.90;;;2.92;;
19560;SDS011;9927;47.792;10.616;2024-03-22T17:08:50;3.05;;;2.95;;
19560;SDS011;9927;47.792;10.616;2024-03-22T17:11:16;4.68;;;3.20;;
19560;SDS011;9927;47.792;10.616;2024-03-22T17:13:43;3.47;;;3.28;;
19560;SDS011;9927;47.792;10.616;2024-03-22T17:16:09;3.38;;;3.17;;
19560;SDS011;9927;47.792;10.616;2024-03-22T17:18:35;2.90;;;2.80;;
19560;SDS011;9927;47.792;10.616;2024-03-22T17:21:01;3.60;;;3.30;;
19560;SDS011;9927;47.792;10.616;2024-03-22T17:23:28;3.20;;;2.90;;
19560;SDS011;9927;47.792;10.616;2024-03-22T17:26:01;2.88;;;2.58;;
19560;SDS011;9927;47.792;10.616;2024-03-22T17:28:27;2.80;;;2.60;;
19560;SDS011;9927;47.792;10.616;2024-03-22T17:30:55;2.83;;;2.70;;
19560;SDS011;9927;47.792;10.616;2024-03-22T17:33:21;4.18;;;3.47;;
19560;SDS011;9927;47.792;10.616;2024-03-22T17:35:48;4.63;;;4.30;;
19560;SDS011;9927;47.792;10.616;2024-03-22T17:38:14;3.92;;;3.60;;
19560;SDS011;9927;47.792;10.616;2024-03-22T17:40:40;4.70;;;3.50;;
19560;SDS011;9927;47.792;10.616;2024-03-22T17:43:07;4.88;;;3.75;;
19560;SDS011;9927;47.792;10.616;2024-03-22T17:45:34;4.90;;;3.70;;
19560;SDS011;9927;47.792;10.616;2024-03-22T17:48:02;3.67;;;3.40;;
19560;SDS011;9927;47.792;10.616;2024-03-22T17:50:29;3.58;;;3.03;;
19560;SDS011;9927;47.792;10.616;2024-03-22T17:52:55;4.03;;;3.63;;
19560;SDS011;9927;47.792;10.616;2024-03-22T17:55:22;4.13;;;3.80;;
19560;SDS011;9927;47.792;10.616;2024-03-22T17:57:48;4.10;;;3.90;;
19560;SDS011;9927;47.792;10.616;2024-03-22T18:00:14;4.72;;;3.80;;
19560;SDS011;9927;47.792;10.616;2024-03-22T18:02:41;4.55;;;4.10;;
19560;SDS011;9927;47.792;10.616;2024-03-22T18:05:07;5.05;;;4.70;;
19560;SDS011;9927;47.792;10.616;2024-03-22T18:07:34;5.32;;;4.97;;
19560;SDS011;9927;47.792;10.616;2024-03-22T18:10:00;5.60;;;5.10;;
19560;SDS011;9927;47.792;10.616;2024-03-22T18:12:26;9.63;;;5.07;;
19560;SDS011;9927;47.792;10.616;2024-03-22T18:14:52;4.57;;;4.18;;
19560;SDS011;9927;47.792;10.616;2024-03-22T18:17:19;4.25;;;4.05;;
19560;SDS011;9927;47.792;10.616;2024-03-22T18:19:45;9.55;;;4.50;;
19560;SDS011;9927;47.792;10.616;2024-03-22T18:22:11;5.45;;;4.95;;
19560;SDS011;9927;47.792;10.616;2024-03-22T18:24:37;4.70;;;4.30;;
19560;SDS011;9927;47.792;10.616;2024-03-22T18:27:04;5.05;;;4.40;;
19560;SDS011;9927;47.792;10.616;2024-03-22T18:29:30;5.55;;;4.90;;
19560;SDS011;9927;47.792;10.616;2024-03-22T18:31:57;5.22;;;4.85;;
19560;SDS011;9927;47.792;10.616;2024-03-22T18:34:23;5.13;;;4.43;;
19560;SDS011;9927;47.792;10.616;2024-03-22T18:36:49;4.93;;;4.50;;
19560;SDS011;9927;47.792;10.616;2024-03-22T18:39:16;4.80;;;4.40;;
19560;SDS011;9927;47.792;10.616;2024-03-22T18:41:42;5.45;;;4.50;;